Time;durP1;ratioP1;P1;durP2;ratioP2;P2;SDS_P1;SDS_P2;PMS_P1;PMS_P2;Temp;Humidity;BMP_temperature;BMP_pressure;BME280_temperature;BME280_humidity;BME280_pressure;Samples;Min_cycle;Max_cycle;Signal;HPM_P1;HPM_P2
2022/02/27 00:01:08;;;;;;;2.80;1.77;;;;;;;;;;4968565;28;20355;-68
2022/02/27 00:03:38;;;;;;;3.55;1.65;;;;;;;;;;4901448;28;20051;-68
2022/02/27 00:06:09;;;;;;;7.03;2.15;;;;;;;;;;339740;28;10022769;-68
2022/02/27 00:08:39;;;;;;;3.92;1.75;;;;;;;;;;4959816;28;20055;-68
2022/02/27 00:11:07;;;;;;;6.63;2.20;;;;;;;;;;4972622;28;20054;-68
2022/02/27 00:13:35;;;;;;;6.00;1.80;;;;;;;;;;4973746;28;20402;-68
2022/02/27 00:16:07;;;;;;;5.38;1.80;;;;;;;;;;4973382;28;20520;-68
2022/02/27 00:18:35;;;;;;;7.13;1.83;;;;;;;;;;4973316;28;20526;-68
2022/02/27 00:21:06;;;;;;;5.05;1.95;;;;;;;;;;4968964;28;20105;-68
2022/02/27 00:23:35;;;;;;;5.35;1.60;;;;;;;;;;4973986;28;20085;-68
2022/02/27 00:26:08;;;;;;;7.90;2.30;;;;;;;;;;4964767;28;20133;-68
2022/02/27 00:28:37;;;;;;;6.18;2.28;;;;;;;;;;4970870;28;20130;-68
2022/02/27 00:31:09;;;;;;;6.65;1.98;;;;;;;;;;4943115;29;20052;-68
2022/02/27 00:33:37;;;;;;;5.65;1.80;;;;;;;;;;4954327;29;20078;-68
2022/02/27 00:36:08;;;;;;;3.72;1.77;;;;;;;;;;4953462;29;20547;-68
2022/02/27 00:38:37;;;;;;;12.95;1.80;;;;;;;;;;4951291;29;20138;-68
2022/02/27 00:41:10;;;;;;;7.68;2.38;;;;;;;;;;4968401;28;20142;-68
2022/02/27 00:43:38;;;;;;;6.15;1.60;;;;;;;;;;4973328;28;20118;-68
2022/02/27 00:46:07;;;;;;;3.05;2.10;;;;;;;;;;4972688;28;20458;-68
2022/02/27 00:48:35;;;;;;;4.45;1.67;;;;;;;;;;4972758;28;20483;-68
2022/02/27 00:51:07;;;;;;;8.40;1.90;;;;;;;;;;4971423;28;20078;-68
2022/02/27 00:53:36;;;;;;;5.28;2.25;;;;;;;;;;4973000;28;20051;-68
2022/02/27 00:56:07;;;;;;;11.27;2.10;;;;;;;;;;4970391;28;20051;-68
2022/02/27 00:58:36;;;;;;;5.75;1.80;;;;;;;;;;4970882;28;20510;-68
2022/02/27 01:01:07;;;;;;;7.97;2.20;;;;;;;;;;4971664;28;20455;-68
2022/02/27 01:03:36;;;;;;;4.57;1.95;;;;;;;;;;4972609;28;20073;-68
2022/02/27 01:06:07;;;;;;;6.05;2.17;;;;;;;;;;4972065;28;20562;-68
2022/02/27 01:08:36;;;;;;;7.65;2.00;;;;;;;;;;4972194;28;20055;-68
2022/02/27 01:11:07;;;;;;;11.45;2.25;;;;;;;;;;4969167;28;20039;-68
2022/02/27 01:13:37;;;;;;;8.15;2.20;;;;;;;;;;4971955;28;20517;-68
2022/02/27 01:16:09;;;;;;;2.88;1.75;;;;;;;;;;4987328;28;20402;-68
2022/02/27 01:18:38;;;;;;;3.17;1.80;;;;;;;;;;4992006;28;20385;-68
2022/02/27 01:21:06;;;;;;;5.38;2.30;;;;;;;;;;4987314;28;20076;-68
2022/02/27 01:23:34;;;;;;;7.28;1.98;;;;;;;;;;4991769;28;20137;-68
2022/02/27 01:26:08;;;;;;;5.43;2.20;;;;;;;;;;4989623;28;20145;-68
2022/02/27 01:28:39;;;;;;;6.68;2.75;;;;;;;;;;4990429;28;20045;-68
2022/02/27 01:31:08;;;;;;;5.30;2.67;;;;;;;;;;4986810;28;20065;-68
2022/02/27 01:33:36;;;;;;;9.63;2.30;;;;;;;;;;4987397;28;20093;-68
2022/02/27 01:36:07;;;;;;;4.93;2.60;;;;;;;;;;4991374;28;20133;-68
2022/02/27 01:38:36;;;;;;;7.70;2.85;;;;;;;;;;4991465;28;20053;-68
2022/02/27 01:41:08;;;;;;;6.60;2.38;;;;;;;;;;4989607;28;20141;-68
2022/02/27 01:43:39;;;;;;;7.05;2.45;;;;;;;;;;4988113;28;20080;-68
2022/02/27 01:46:09;;;;;;;5.60;2.22;;;;;;;;;;4991423;28;20161;-68
2022/02/27 01:48:39;;;;;;;5.68;2.80;;;;;;;;;;4990280;28;20061;-68
2022/02/27 01:51:11;;;;;;;7.13;2.45;;;;;;;;;;4985967;28;20168;-68
2022/02/27 01:53:40;;;;;;;6.97;2.95;;;;;;;;;;4986256;28;20141;-68
2022/02/27 01:56:09;;;;;;;8.80;2.70;;;;;;;;;;4986350;28;20405;-68
2022/02/27 01:58:38;;;;;;;8.85;3.17;;;;;;;;;;4988054;28;20544;-68
2022/02/27 02:01:09;;;;;;;7.30;3.03;;;;;;;;;;4988216;28;20110;-68
2022/02/27 02:03:38;;;;;;;5.38;2.75;;;;;;;;;;4990507;28;20401;-68
2022/02/27 02:06:12;;;;;;;7.40;2.85;;;;;;;;;;3229088;28;10022132;-68
2022/02/27 02:08:40;;;;;;;7.25;2.65;;;;;;;;;;2234919;28;10001905;-68
2022/02/27 02:11:09;;;;;;;4.85;2.60;;;;;;;;;;4989765;28;20065;-68
2022/02/27 02:13:42;;;;;;;9.20;2.83;;;;;;;;;;4991523;28;20046;-68
2022/02/27 02:16:10;;;;;;;8.77;3.15;;;;;;;;;;4978878;28;20138;-68
2022/02/27 02:18:39;;;;;;;6.35;2.50;;;;;;;;;;4988164;28;20051;-68
2022/02/27 02:21:09;;;;;;;8.27;2.90;;;;;;;;;;4969962;28;20082;-68
2022/02/27 02:23:37;;;;;;;9.27;2.72;;;;;;;;;;4970462;28;20130;-68
2022/02/27 02:26:10;;;;;;;6.07;2.95;;;;;;;;;;4971455;28;20129;-68
2022/02/27 02:28:38;;;;;;;6.32;2.70;;;;;;;;;;4978084;28;20515;-68
2022/02/27 02:31:09;;;;;;;8.20;2.97;;;;;;;;;;4969711;28;20053;-68
2022/02/27 02:33:39;;;;;;;6.07;3.40;;;;;;;;;;4977831;28;20433;-68
2022/02/27 02:36:08;;;;;;;8.38;2.47;;;;;;;;;;4975857;28;20117;-68
2022/02/27 02:38:37;;;;;;;6.45;2.80;;;;;;;;;;4977196;28;20122;-68
2022/02/27 02:41:08;;;;;;;6.43;2.50;;;;;;;;;;4965296;28;20448;-68
2022/02/27 02:43:36;;;;;;;7.22;2.58;;;;;;;;;;4988626;28;20154;-68
2022/02/27 02:46:08;;;;;;;6.15;2.90;;;;;;;;;;4970080;28;20126;-68
2022/02/27 02:48:36;;;;;;;11.85;3.17;;;;;;;;;;4971920;28;20062;-68
2022/02/27 02:51:09;;;;;;;4.97;2.78;;;;;;;;;;4976790;28;20077;-68
2022/02/27 02:53:37;;;;;;;9.70;3.35;;;;;;;;;;4988413;28;20582;-68
2022/02/27 02:56:09;;;;;;;4.47;2.45;;;;;;;;;;4986173;28;20066;-68
2022/02/27 02:58:39;;;;;;;13.63;2.97;;;;;;;;;;4970304;28;20439;-68
2022/02/27 03:01:08;;;;;;;8.55;2.78;;;;;;;;;;4975436;28;20466;-67
2022/02/27 03:03:37;;;;;;;6.70;3.00;;;;;;;;;;4969762;28;20055;-68
2022/02/27 03:06:10;;;;;;;6.97;3.30;;;;;;;;;;4970013;28;20054;-68
2022/02/27 03:08:39;;;;;;;6.50;2.80;;;;;;;;;;4971046;28;20046;-68
2022/02/27 03:11:07;;;;;;;4.03;2.33;;;;;;;;;;4974887;28;20066;-68
2022/02/27 03:13:36;;;;;;;5.57;2.72;;;;;;;;;;4974229;28;20078;-68
2022/02/27 03:16:08;;;;;;;13.50;3.30;;;;;;;;;;4975319;28;20074;-68
2022/02/27 03:18:37;;;;;;;6.82;2.80;;;;;;;;;;4989042;28;20046;-68
2022/02/27 03:21:11;;;;;;;11.57;3.35;;;;;;;;;;4989412;28;20062;-68
2022/02/27 03:23:39;;;;;;;12.15;2.95;;;;;;;;;;4990603;28;20050;-67
2022/02/27 03:26:09;;;;;;;9.82;3.17;;;;;;;;;;4989202;28;20058;-68
2022/02/27 03:28:37;;;;;;;6.22;2.70;;;;;;;;;;4990028;28;20129;-67
2022/02/27 03:31:08;;;;;;;6.78;2.50;;;;;;;;;;4983419;28;20137;-67
2022/02/27 03:33:37;;;;;;;8.88;2.75;;;;;;;;;;4985739;28;20046;-67
2022/02/27 03:36:08;;;;;;;7.72;2.67;;;;;;;;;;4988265;28;20554;-68
2022/02/27 03:38:37;;;;;;;8.25;3.00;;;;;;;;;;4989843;28;20050;-68
2022/02/27 03:41:09;;;;;;;7.55;3.05;;;;;;;;;;4989023;28;20054;-68
2022/02/27 03:43:37;;;;;;;7.70;2.85;;;;;;;;;;4987029;28;20557;-68
2022/02/27 03:46:09;;;;;;;8.05;3.05;;;;;;;;;;4989828;28;20090;-67
2022/02/27 03:48:37;;;;;;;10.90;3.60;;;;;;;;;;4988323;28;20564;-68
2022/02/27 03:51:08;;;;;;;6.13;3.03;;;;;;;;;;4989268;28;20121;-68
2022/02/27 03:53:38;;;;;;;8.88;2.70;;;;;;;;;;4990176;28;20050;-68
2022/02/27 03:56:09;;;;;;;7.25;2.55;;;;;;;;;;4985933;28;20405;-68
2022/02/27 03:58:37;;;;;;;8.57;3.10;;;;;;;;;;4988781;28;20497;-68
2022/02/27 04:01:08;;;;;;;7.60;2.65;;;;;;;;;;4988552;28;20133;-68
2022/02/27 04:03:36;;;;;;;11.45;3.40;;;;;;;;;;4991491;28;20060;-68
2022/02/27 04:06:07;;;;;;;5.55;2.67;;;;;;;;;;4991364;28;20771;-67
2022/02/27 04:08:37;;;;;;;8.60;2.72;;;;;;;;;;4989917;28;20054;-68
2022/02/27 04:11:08;;;;;;;5.45;2.95;;;;;;;;;;4992510;28;20139;-68
2022/02/27 04:13:36;;;;;;;6.88;2.80;;;;;;;;;;4993552;28;20125;-67
2022/02/27 04:16:08;;;;;;;8.10;3.33;;;;;;;;;;4986120;28;20482;-67
2022/02/27 04:18:37;;;;;;;11.70;3.13;;;;;;;;;;4975609;28;20483;-67
2022/02/27 04:21:09;;;;;;;7.88;3.55;;;;;;;;;;4970833;28;20105;-68
2022/02/27 04:23:38;;;;;;;5.57;2.63;;;;;;;;;;4969247;28;20503;-67
2022/02/27 04:26:10;;;;;;;7.50;2.83;;;;;;;;;;4968999;28;20141;-67
2022/02/27 04:28:38;;;;;;;4.75;2.63;;;;;;;;;;4981911;28;20510;-67
2022/02/27 04:31:09;;;;;;;7.22;2.78;;;;;;;;;;4983312;28;20142;-67
2022/02/27 04:33:47;;;;;;;13.43;3.02;;;;;;;;;;3012034;28;10002440;-68
2022/02/27 04:36:16;;;;;;;6.18;2.72;;;;;;;;;;2570864;28;10002409;-68
2022/02/27 04:38:45;;;;;;;11.27;3.20;;;;;;;;;;4972560;28;20158;-67
2022/02/27 04:41:18;;;;;;;7.85;3.17;;;;;;;;;;4959500;28;20440;-68
2022/02/27 04:43:46;;;;;;;6.25;2.78;;;;;;;;;;4965458;28;20093;-67
2022/02/27 04:46:15;;;;;;;10.02;3.40;;;;;;;;;;4959298;28;20081;-67
2022/02/27 04:48:43;;;;;;;6.05;3.30;;;;;;;;;;4953632;29;20043;-67
2022/02/27 04:51:12;;;;;;;7.40;3.13;;;;;;;;;;4973561;28;20157;-67
2022/02/27 04:53:40;;;;;;;4.75;2.75;;;;;;;;;;4980065;28;20083;-67
2022/02/27 04:56:10;;;;;;;11.75;3.05;;;;;;;;;;4979989;28;20472;-67
2022/02/27 04:58:38;;;;;;;6.80;2.85;;;;;;;;;;4971545;28;20562;-67
2022/02/27 05:01:09;;;;;;;6.15;2.83;;;;;;;;;;4960873;28;20058;-67
2022/02/27 05:03:38;;;;;;;8.95;3.08;;;;;;;;;;4962695;28;20109;-67
2022/02/27 05:06:10;;;;;;;8.20;3.17;;;;;;;;;;4954448;28;20132;-67
2022/02/27 05:08:38;;;;;;;10.98;3.67;;;;;;;;;;4968495;28;20054;-67
2022/02/27 05:11:11;;;;;;;8.85;3.13;;;;;;;;;;4958290;28;20170;-67
2022/02/27 05:13:40;;;;;;;8.35;3.65;;;;;;;;;;4952665;28;20063;-67
2022/02/27 05:16:08;;;;;;;5.75;2.92;;;;;;;;;;4969853;28;20136;-67
2022/02/27 05:18:36;;;;;;;8.48;3.20;;;;;;;;;;4971602;28;20047;-67
2022/02/27 05:21:07;;;;;;;8.40;3.30;;;;;;;;;;4989709;28;20514;-67
2022/02/27 05:23:36;;;;;;;9.05;3.80;;;;;;;;;;4991679;28;20139;-67
2022/02/27 05:26:11;;;;;;;8.60;3.28;;;;;;;;;;4987173;28;20070;-67
2022/02/27 05:28:39;;;;;;;9.23;2.88;;;;;;;;;;4988558;28;20574;-67
2022/02/27 05:31:08;;;;;;;7.88;3.40;;;;;;;;;;4974414;28;20057;-67
2022/02/27 05:33:36;;;;;;;9.95;3.58;;;;;;;;;;4972461;28;20422;-67
2022/02/27 05:36:07;;;;;;;7.68;2.95;;;;;;;;;;4975243;28;20101;-67
2022/02/27 05:38:36;;;;;;;7.63;2.83;;;;;;;;;;4968143;28;20451;-67
2022/02/27 05:41:11;;;;;;;10.25;3.13;;;;;;;;;;4989177;28;20513;-67
2022/02/27 05:43:40;;;;;;;5.63;3.28;;;;;;;;;;4991321;28;20125;-67
2022/02/27 05:46:08;;;;;;;8.73;3.63;;;;;;;;;;4991169;28;20081;-67
2022/02/27 05:48:36;;;;;;;7.03;2.95;;;;;;;;;;4988994;28;20170;-67
2022/02/27 05:51:08;;;;;;;8.18;3.25;;;;;;;;;;4989103;28;20054;-67
2022/02/27 05:53:37;;;;;;;10.32;3.55;;;;;;;;;;4989247;28;20560;-67
2022/02/27 05:56:08;;;;;;;10.10;3.47;;;;;;;;;;4990572;28;20058;-67
2022/02/27 05:58:38;;;;;;;4.85;2.92;;;;;;;;;;4991678;28;20097;-67
2022/02/27 06:01:09;;;;;;;7.03;3.22;;;;;;;;;;4990486;28;20165;-67
2022/02/27 06:03:38;;;;;;;8.13;2.85;;;;;;;;;;4931606;28;20046;-68
2022/02/27 06:06:09;;;;;;;5.57;3.53;;;;;;;;;;319868;28;10022605;-68
2022/02/27 06:08:37;;;;;;;7.90;3.95;;;;;;;;;;4966473;28;20057;-67
2022/02/27 06:11:09;;;;;;;8.40;3.45;;;;;;;;;;4969842;28;20142;-67
2022/02/27 06:13:38;;;;;;;8.10;3.40;;;;;;;;;;4970858;28;20078;-67
2022/02/27 06:16:07;;;;;;;9.82;3.25;;;;;;;;;;4970265;28;20146;-67
2022/02/27 06:18:36;;;;;;;7.25;3.13;;;;;;;;;;4970704;28;20065;-67
2022/02/27 06:21:10;;;;;;;6.18;3.58;;;;;;;;;;4964979;28;20138;-67
2022/02/27 06:23:39;;;;;;;11.63;4.88;;;;;;;;;;4964758;28;20134;-67
2022/02/27 06:26:11;;;;;;;6.90;2.80;;;;;;;;;;4966760;28;20470;-67
2022/02/27 06:28:41;;;;;;;5.25;3.33;;;;;;;;;;4965892;28;20146;-67
2022/02/27 06:31:09;;;;;;;9.32;3.65;;;;;;;;;;4966700;28;20058;-67
2022/02/27 06:33:38;;;;;;;7.85;3.63;;;;;;;;;;4967636;28;20589;-67
2022/02/27 06:36:09;;;;;;;12.55;3.10;;;;;;;;;;4966787;28;20137;-67
2022/02/27 06:38:38;;;;;;;5.10;2.92;;;;;;;;;;4965176;28;20078;-67
2022/02/27 06:41:12;;;;;;;8.55;3.88;;;;;;;;;;4984875;28;20458;-67
2022/02/27 06:43:41;;;;;;;9.48;3.50;;;;;;;;;;4986767;28;20487;-67
2022/02/27 06:46:10;;;;;;;7.93;3.25;;;;;;;;;;4986970;28;20080;-67
2022/02/27 06:48:38;;;;;;;8.13;3.70;;;;;;;;;;4985662;28;20050;-67
2022/02/27 06:51:09;;;;;;;6.75;3.22;;;;;;;;;;4964934;28;20062;-67
2022/02/27 06:53:39;;;;;;;9.77;3.70;;;;;;;;;;4964479;28;20050;-67
2022/02/27 06:56:10;;;;;;;9.35;3.75;;;;;;;;;;4967477;28;20141;-67
2022/02/27 06:58:38;;;;;;;7.97;3.47;;;;;;;;;;4965771;28;20483;-67
2022/02/27 07:01:10;;;;;;;12.25;3.15;;;;;;;;;;4966347;28;20150;-67
2022/02/27 07:03:39;;;;;;;8.73;3.80;;;;;;;;;;4967014;28;20808;-67
2022/02/27 07:06:08;;;;;;;9.98;3.80;;;;;;;;;;4967414;28;20047;-67
2022/02/27 07:08:36;;;;;;;8.23;3.30;;;;;;;;;;4965762;28;20106;-67
2022/02/27 07:11:10;;;;;;;10.45;4.07;;;;;;;;;;4964522;28;20057;-67
2022/02/27 07:13:47;;;;;;;8.13;3.70;;;;;;;;;;4965254;28;20049;-67
2022/02/27 07:16:22;;;;;;;11.88;5.03;;;;;;;;;;4967033;28;20054;-68
2022/02/27 07:18:50;;;;;;;;;;;;;;;;;;4967960;28;20070;-68
2022/02/27 07:21:19;;;;;;;11.60;3.85;;;;;;;;;;4966877;28;20011;-68
2022/02/27 07:23:48;;;;;;;14.00;4.05;;;;;;;;;;4966568;28;20402;-68
2022/02/27 07:26:18;;;;;;;8.77;4.20;;;;;;;;;;4964652;28;20582;-67
2022/02/27 07:28:47;;;;;;;8.02;3.90;;;;;;;;;;4962769;28;20119;-67
2022/02/27 07:31:15;;;;;;;9.13;4.38;;;;;;;;;;4945599;28;20170;-67
2022/02/27 07:33:50;;;;;;;11.73;4.38;;;;;;;;;;4945897;29;20058;-68
2022/02/27 07:36:18;;;;;;;11.90;4.15;;;;;;;;;;4947859;29;20051;-68
2022/02/27 07:38:47;;;;;;;14.60;4.55;;;;;;;;;;4947752;28;20118;-67
2022/02/27 07:41:15;;;;;;;9.52;3.72;;;;;;;;;;4971007;28;20477;-68
2022/02/27 07:43:43;;;;;;;12.23;4.97;;;;;;;;;;4968041;28;20129;-68
2022/02/27 07:46:12;;;;;;;13.38;4.80;;;;;;;;;;4968164;28;20189;-68
2022/02/27 07:48:40;;;;;;;11.35;4.55;;;;;;;;;;4971287;28;20058;-68
2022/02/27 07:51:10;;;;;;;11.07;5.18;;;;;;;;;;4968914;28;20589;-68
2022/02/27 07:53:38;;;;;;;15.35;4.82;;;;;;;;;;4970613;28;20051;-68
2022/02/27 07:56:10;;;;;;;15.25;4.57;;;;;;;;;;4971294;28;20090;-68
2022/02/27 07:58:40;;;;;;;14.75;5.07;;;;;;;;;;4967562;28;20142;-68
2022/02/27 08:01:08;;;;;;;13.25;5.55;;;;;;;;;;4970280;28;20137;-68
2022/02/27 08:03:37;;;;;;;15.10;4.80;;;;;;;;;;4970803;28;20499;-68
2022/02/27 08:06:12;;;;;;;;;;;;;;;;;;3752179;28;10022746;-69
2022/02/27 08:08:42;;;;;;;11.55;4.72;;;;;;;;;;1705454;28;10002136;-68
2022/02/27 08:11:11;;;;;;;15.80;4.60;;;;;;;;;;4968246;28;20046;-68
2022/02/27 08:13:39;;;;;;;8.85;3.58;;;;;;;;;;4968525;28;20054;-68
2022/02/27 08:16:08;;;;;;;16.55;4.85;;;;;;;;;;4982668;28;20085;-68
2022/02/27 08:18:36;;;;;;;18.65;5.93;;;;;;;;;;4973247;28;20050;-68
2022/02/27 08:21:10;;;;;;;17.83;4.75;;;;;;;;;;4974277;28;20450;-68
2022/02/27 08:23:39;;;;;;;13.70;5.05;;;;;;;;;;4971719;28;20047;-68
2022/02/27 08:26:09;;;;;;;10.77;5.00;;;;;;;;;;4976726;28;20147;-68
2022/02/27 08:28:37;;;;;;;12.50;4.50;;;;;;;;;;4976894;28;20069;-69
2022/02/27 08:31:09;;;;;;;13.07;4.72;;;;;;;;;;4966379;28;20058;-68
2022/02/27 08:33:38;;;;;;;10.82;4.82;;;;;;;;;;4970417;28;20046;-68
2022/02/27 08:36:11;;;;;;;14.05;4.63;;;;;;;;;;4974442;28;20133;-69
2022/02/27 08:38:39;;;;;;;11.38;5.43;;;;;;;;;;4969448;28;20712;-68
2022/02/27 08:41:12;;;;;;;12.48;5.28;;;;;;;;;;4979576;28;20065;-68
2022/02/27 08:43:40;;;;;;;15.82;4.70;;;;;;;;;;4976155;28;20563;-69
2022/02/27 08:46:09;;;;;;;14.48;4.78;;;;;;;;;;4967527;28;20092;-68
2022/02/27 08:48:37;;;;;;;12.25;5.00;;;;;;;;;;4971649;28;20050;-69
2022/02/27 08:51:09;;;;;;;13.68;5.32;;;;;;;;;;4972874;28;20125;-68
2022/02/27 08:53:37;;;;;;;10.02;4.95;;;;;;;;;;4967987;28;20495;-68
2022/02/27 08:56:08;;;;;;;14.13;4.85;;;;;;;;;;4957730;28;20082;-69
2022/02/27 08:58:38;;;;;;;9.57;4.50;;;;;;;;;;4974032;28;20512;-68
2022/02/27 09:01:09;;;;;;;13.63;4.25;;;;;;;;;;4964579;28;20051;-69
2022/02/27 09:03:38;;;;;;;11.65;4.82;;;;;;;;;;4971755;28;20065;-69
2022/02/27 09:06:09;;;;;;;10.27;4.50;;;;;;;;;;4963178;28;20051;-69
2022/02/27 09:08:41;;;;;;;10.50;4.82;;;;;;;;;;4969010;28;20054;-69
2022/02/27 09:11:10;;;;;;;9.55;4.38;;;;;;;;;;4964562;28;20126;-69
2022/02/27 09:13:40;;;;;;;15.25;4.22;;;;;;;;;;4964110;28;20150;-69
2022/02/27 09:16:08;;;;;;;15.07;5.95;;;;;;;;;;4979450;28;20556;-69
2022/02/27 09:18:37;;;;;;;9.05;4.28;;;;;;;;;;4974487;28;20125;-69
2022/02/27 09:21:08;;;;;;;10.38;4.65;;;;;;;;;;4970769;28;20046;-68
2022/02/27 09:23:36;;;;;;;14.02;5.00;;;;;;;;;;4979499;28;20050;-69
2022/02/27 09:26:08;;;;;;;10.80;4.03;;;;;;;;;;4975214;28;20134;-69
2022/02/27 09:28:57;;;;;;;10.63;3.65;;;;;;;;;;4972166;28;20059;-70
2022/02/27 09:31:26;;;;;;;12.82;4.43;;;;;;;;;;4966027;28;20057;-70
2022/02/27 09:33:54;;;;;;;10.25;3.50;;;;;;;;;;4976825;28;20521;-69
2022/02/27 09:36:26;;;;;;;7.93;3.70;;;;;;;;;;4979806;28;20051;-69
2022/02/27 09:38:54;;;;;;;9.63;3.60;;;;;;;;;;4975798;28;20051;-69
2022/02/27 09:41:22;;;;;;;11.27;4.10;;;;;;;;;;4968820;28;20079;-69
2022/02/27 09:43:53;;;;;;;14.57;4.13;;;;;;;;;;4972835;28;20100;-69
2022/02/27 09:46:24;;;;;;;9.23;3.90;;;;;;;;;;4968869;28;20533;-69
2022/02/27 09:48:52;;;;;;;11.40;3.85;;;;;;;;;;4982338;28;20057;-69
2022/02/27 09:51:21;;;;;;;8.20;3.78;;;;;;;;;;4971972;28;20042;-69
2022/02/27 09:53:49;;;;;;;9.35;3.63;;;;;;;;;;4969441;28;20090;-69
2022/02/27 09:56:17;;;;;;;8.45;4.00;;;;;;;;;;4965784;28;20392;-69
2022/02/27 09:58:46;;;;;;;7.93;3.85;;;;;;;;;;4968138;28;20488;-69
2022/02/27 10:01:16;;;;;;;7.32;3.60;;;;;;;;;;4968628;28;20558;-69
2022/02/27 10:03:54;;;;;;;6.30;3.42;;;;;;;;;;4797359;28;10001146;-71
2022/02/27 10:06:22;;;;;;;4.35;2.55;;;;;;;;;;680788;29;10002002;-69
2022/02/27 10:08:56;;;;;;;9.95;3.80;;;;;;;;;;4948749;28;20142;-69
2022/02/27 10:11:25;;;;;;;8.57;3.27;;;;;;;;;;4932012;29;20051;-69
2022/02/27 10:13:54;;;;;;;7.78;3.55;;;;;;;;;;4951246;29;20335;-69
2022/02/27 10:16:24;;;;;;;8.27;3.72;;;;;;;;;;4951546;29;20051;-69
2022/02/27 10:18:54;;;;;;;10.18;3.80;;;;;;;;;;4950502;29;20518;-69
2022/02/27 10:21:24;;;;;;;9.18;3.83;;;;;;;;;;4964428;28;20125;-69
2022/02/27 10:24:13;;;;;;;8.75;3.88;;;;;;;;;;4955451;28;20084;-69
2022/02/27 10:26:42;;;;;;;10.88;3.88;;;;;;;;;;4971269;28;20519;-69
2022/02/27 10:29:13;;;;;;;7.85;3.67;;;;;;;;;;4970888;28;20051;-69
2022/02/27 10:31:43;;;;;;;12.90;4.85;;;;;;;;;;4971236;28;20050;-69
2022/02/27 10:34:14;;;;;;;10.60;4.65;;;;;;;;;;4970074;28;20510;-69
2022/02/27 10:36:55;;;;;;;8.40;4.05;;;;;;;;;;4964876;28;20134;-70
2022/02/27 10:39:27;;;;;;;12.52;4.15;;;;;;;;;;4966971;28;20558;-69
2022/02/27 10:41:56;;;;;;;7.60;4.15;;;;;;;;;;4970120;28;20043;-69
2022/02/27 10:44:24;;;;;;;11.73;4.93;;;;;;;;;;4969507;28;20046;-69
2022/02/27 10:47:07;;;;;;;7.22;3.88;;;;;;;;;;4969348;28;20042;-69
2022/02/27 10:49:37;;;;;;;10.40;4.53;;;;;;;;;;4966769;28;20050;-69
2022/02/27 10:52:16;;;;;;;9.93;4.18;;;;;;;;;;4969363;28;20130;-69
2022/02/27 10:54:45;;;;;;;6.93;4.00;;;;;;;;;;4966349;28;20078;-70
2022/02/27 10:57:27;;;;;;;7.18;4.13;;;;;;;;;;4970974;28;20086;-69
2022/02/27 10:59:55;;;;;;;11.40;3.95;;;;;;;;;;4965558;28;20047;-69
2022/02/27 11:02:27;;;;;;;14.50;4.35;;;;;;;;;;4968975;28;20082;-69
2022/02/27 11:04:58;;;;;;;7.72;4.22;;;;;;;;;;4966014;28;20051;-69
2022/02/27 11:07:27;;;;;;;6.95;3.78;;;;;;;;;;4966009;28;20450;-69
2022/02/27 11:09:55;;;;;;;9.82;3.90;;;;;;;;;;4965973;28;20051;-69
2022/02/27 11:12:24;;;;;;;9.32;4.13;;;;;;;;;;4971581;28;20078;-69
2022/02/27 11:14:53;;;;;;;9.23;4.07;;;;;;;;;;4980010;28;20105;-69
2022/02/27 11:17:22;;;;;;;8.73;5.05;;;;;;;;;;4975563;28;20577;-70
2022/02/27 11:19:51;;;;;;;15.57;4.60;;;;;;;;;;4977332;28;20078;-69
2022/02/27 11:22:21;;;;;;;8.48;4.20;;;;;;;;;;4972729;28;20483;-70
2022/02/27 11:24:50;;;;;;;9.48;4.50;;;;;;;;;;4975922;28;20399;-70
2022/02/27 11:27:19;;;;;;;11.30;4.15;;;;;;;;;;4974425;28;20138;-69
2022/02/27 11:29:49;;;;;;;10.25;3.55;;;;;;;;;;4977291;28;20553;-69
2022/02/27 11:32:17;;;;;;;6.25;3.28;;;;;;;;;;4972821;28;20489;-69
2022/02/27 11:34:46;;;;;;;7.85;4.00;;;;;;;;;;4972823;28;20047;-70
2022/02/27 11:37:16;;;;;;;10.15;4.30;;;;;;;;;;4972913;28;20050;-70
2022/02/27 11:42:54;;;;;;;9.80;4.85;;;;;;;;;;4969132;28;20071;-69
2022/02/27 11:45:41;;;;;;;8.73;4.77;;;;;;;;;;4969865;28;20043;-71
2022/02/27 11:48:10;;;;;;;7.95;4.20;;;;;;;;;;4959524;28;20165;-70
2022/02/27 11:50:41;;;;;;;11.00;5.25;;;;;;;;;;4977964;28;20122;-69
2022/02/27 11:53:20;;;;;;;7.50;4.20;;;;;;;;;;4971067;28;20471;-69
2022/02/27 11:55:49;;;;;;;13.48;5.05;;;;;;;;;;4968580;28;20153;-70
2022/02/27 11:58:22;;;;;;;7.82;4.05;;;;;;;;;;4975209;28;20054;-70
2022/02/27 12:00:50;;;;;;;10.98;3.95;;;;;;;;;;4972364;28;20177;-70
2022/02/27 12:03:36;;;;;;;11.13;4.45;;;;;;;;;;4971209;28;20102;-70
2022/02/27 12:06:11;;;;;;;10.20;4.50;;;;;;;;;;4969996;28;20463;-70
2022/02/27 12:08:40;;;;;;;9.93;4.13;;;;;;;;;;4967363;28;20574;-69
2022/02/27 12:11:29;;;;;;;11.43;4.15;;;;;;;;;;4978105;28;20078;-70
2022/02/27 12:14:01;;;;;;;9.20;4.30;;;;;;;;;;4970313;28;21241;-70
2022/02/27 12:16:35;;;;;;;12.27;5.10;;;;;;;;;;4972892;28;20086;-69
2022/02/27 12:19:04;;;;;;;7.65;4.38;;;;;;;;;;4971660;28;20585;-68
2022/02/27 12:21:36;;;;;;;9.43;3.92;;;;;;;;;;4977905;28;20077;-69
2022/02/27 12:24:12;;;;;;;10.63;4.38;;;;;;;;;;4974390;28;20145;-70
2022/02/27 12:26:42;;;;;;;13.60;4.88;;;;;;;;;;4973147;28;20131;-69
2022/02/27 12:29:13;;;;;;;;;;;;;;;;;;1381045;28;10022450;-70
2022/02/27 12:31:43;;;;;;;10.45;4.75;;;;;;;;;;4614568;28;10001628;-70
2022/02/27 12:34:12;;;;;;;7.50;4.78;;;;;;;;;;4971077;28;20168;-69
2022/02/27 12:36:41;;;;;;;8.82;4.43;;;;;;;;;;4969646;28;20133;-69
2022/02/27 12:39:10;;;;;;;8.98;4.43;;;;;;;;;;4962346;28;20485;-69
2022/02/27 12:41:39;;;;;;;9.60;4.38;;;;;;;;;;4949906;29;20142;-69
2022/02/27 12:44:09;;;;;;;5.13;3.22;;;;;;;;;;4949029;29;20530;-69
2022/02/27 12:46:38;;;;;;;11.02;4.97;;;;;;;;;;4948686;29;20109;-69
2022/02/27 12:51:56;;;;;;;9.57;4.28;;;;;;;;;;4949876;29;20321;-69
2022/02/27 12:54:30;;;;;;;9.18;4.80;;;;;;;;;;4948951;29;20445;-69
2022/02/27 12:57:00;;;;;;;10.27;4.70;;;;;;;;;;4948568;28;20526;-69
2022/02/27 12:59:32;;;;;;;10.52;4.05;;;;;;;;;;4952406;28;20455;-69
2022/02/27 13:02:00;;;;;;;8.73;4.60;;;;;;;;;;4952748;28;20474;-69
2022/02/27 13:04:31;;;;;;;8.95;4.85;;;;;;;;;;4952886;28;20581;-71
2022/02/27 13:07:00;;;;;;;11.15;4.75;;;;;;;;;;4954606;28;20461;-70
2022/02/27 13:09:30;;;;;;;10.77;4.65;;;;;;;;;;4953128;28;20130;-71
2022/02/27 13:11:58;;;;;;;11.02;4.53;;;;;;;;;;4945900;29;20051;-70
2022/02/27 13:14:27;;;;;;;9.20;4.75;;;;;;;;;;4954124;28;20173;-71
2022/02/27 13:16:56;;;;;;;10.68;4.90;;;;;;;;;;4970083;28;20089;-68
2022/02/27 13:19:33;;;;;;;9.88;4.25;;;;;;;;;;4966216;28;20497;-69
2022/02/27 13:22:02;;;;;;;6.97;3.97;;;;;;;;;;4952012;29;20091;-69
2022/02/27 13:24:34;;;;;;;6.47;3.47;;;;;;;;;;4953529;29;20469;-69
2022/02/27 13:27:08;;;;;;;10.52;4.18;;;;;;;;;;4949336;29;20114;-69
2022/02/27 13:29:52;;;;;;;17.05;4.28;;;;;;;;;;4950495;29;20069;-68
2022/02/27 13:32:21;;;;;;;12.25;4.57;;;;;;;;;;4949408;29;20478;-69
2022/02/27 13:34:52;;;;;;;10.00;5.13;;;;;;;;;;4953085;28;20490;-69
2022/02/27 13:37:24;;;;;;;11.02;4.65;;;;;;;;;;4952767;29;20467;-68
2022/02/27 13:40:10;;;;;;;7.80;4.13;;;;;;;;;;4952777;29;20499;-68
2022/02/27 13:42:40;;;;;;;8.50;3.95;;;;;;;;;;4952028;29;20047;-68
2022/02/27 13:45:12;;;;;;;9.02;4.28;;;;;;;;;;4945641;29;20051;-68
2022/02/27 13:47:43;;;;;;;10.95;4.15;;;;;;;;;;4953877;29;20047;-68
2022/02/27 13:50:23;;;;;;;6.38;3.97;;;;;;;;;;4951783;28;20059;-68
2022/02/27 13:52:58;;;;;;;6.13;3.53;;;;;;;;;;4952465;28;20053;-68
2022/02/27 13:55:27;;;;;;;10.02;5.43;;;;;;;;;;4952233;29;20094;-69
2022/02/27 13:58:02;;;;;;;10.00;4.55;;;;;;;;;;4952561;29;20047;-69
2022/02/27 14:00:30;;;;;;;;;;;;;;;;;;4947498;28;20055;-69
2022/02/27 14:03:04;;;;;;;11.63;5.20;;;;;;;;;;4952824;29;19995;-69
2022/02/27 14:05:56;;;;;;;9.40;4.15;;;;;;;;;;977016;28;10023475;-69
2022/02/27 14:08:28;;;;;;;7.93;4.35;;;;;;;;;;4646897;28;10000980;-68
2022/02/27 14:11:16;;;;;;;10.02;4.75;;;;;;;;;;4990495;28;20489;-68
2022/02/27 14:13:47;;;;;;;8.75;5.05;;;;;;;;;;4990139;28;20045;-68
2022/02/27 14:16:22;;;;;;;10.52;4.47;;;;;;;;;;4979302;28;20088;-69
2022/02/27 14:18:50;;;;;;;10.20;4.65;;;;;;;;;;4989406;28;20450;-69
2022/02/27 14:21:23;;;;;;;10.30;4.78;;;;;;;;;;4991325;28;20086;-69
2022/02/27 14:23:52;;;;;;;12.40;4.35;;;;;;;;;;4983591;28;20047;-69
2022/02/27 14:26:20;;;;;;;9.48;4.57;;;;;;;;;;4987649;28;20049;-69
2022/02/27 14:28:50;;;;;;;10.30;4.82;;;;;;;;;;4988991;28;20138;-68
2022/02/27 14:31:19;;;;;;;9.65;4.53;;;;;;;;;;4971051;28;20047;-68
2022/02/27 14:33:47;;;;;;;5.82;2.65;;;;;;;;;;4971198;28;20135;-68
2022/02/27 14:36:15;;;;;;;11.10;4.35;;;;;;;;;;4967141;28;20089;-68
2022/02/27 14:38:45;;;;;;;10.00;4.03;;;;;;;;;;4969701;28;20117;-68
2022/02/27 14:41:16;;;;;;;7.50;4.03;;;;;;;;;;4969894;28;20047;-68
2022/02/27 14:43:45;;;;;;;7.78;4.13;;;;;;;;;;4971216;28;20090;-68
2022/02/27 14:46:13;;;;;;;8.55;4.63;;;;;;;;;;4970246;28;20563;-69
2022/02/27 14:48:42;;;;;;;9.38;4.15;;;;;;;;;;4969058;28;20495;-68
2022/02/27 14:51:17;;;;;;;13.93;4.70;;;;;;;;;;4986469;28;20060;-69
2022/02/27 14:53:46;;;;;;;9.25;3.97;;;;;;;;;;4990970;28;20077;-69
2022/02/27 14:56:15;;;;;;;7.15;4.40;;;;;;;;;;4990780;28;20039;-68
2022/02/27 14:58:43;;;;;;;10.00;4.90;;;;;;;;;;4991173;28;20320;-69
2022/02/27 15:01:15;;;;;;;9.50;4.43;;;;;;;;;;4970287;28;20055;-68
2022/02/27 15:03:44;;;;;;;7.50;4.00;;;;;;;;;;4967589;28;20045;-68